Time;durP1;ratioP1;P1;durP2;ratioP2;P2;SDS_P1;SDS_P2;PMS_P1;PMS_P2;Temp;Humidity;BMP_temperature;BMP_pressure;BME280_temperature;BME280_humidity;BME280_pressure;Samples;Min_cycle;Max_cycle;Signal;HPM_P1;HPM_P2
2023/03/05 00:01:50;;;;;;;16.27;10.35;;;;;;;;;;4941716;29;20078;-69
2023/03/05 00:05:33;;;;;;;18.10;11.48;;;;;;;;;;4936390;29;20051;-70
2023/03/05 00:09:11;;;;;;;17.20;11.20;;;;;;;;;;4935755;28;20086;-72
2023/03/05 00:12:53;;;;;;;18.83;11.38;;;;;;;;;;4936828;28;20083;-69
2023/03/05 00:16:34;;;;;;;20.88;11.35;;;;;;;;;;4942633;28;20051;-70
2023/03/05 00:20:15;;;;;;;18.50;10.85;;;;;;;;;;4943151;28;20436;-70
2023/03/05 00:23:55;;;;;;;16.50;10.95;;;;;;;;;;4942836;28;20063;-69
2023/03/05 00:27:35;;;;;;;15.13;10.88;;;;;;;;;;4946769;28;20499;-69
2023/03/05 00:31:16;;;;;;;17.52;11.35;;;;;;;;;;4944538;28;20146;-69
2023/03/05 00:34:56;;;;;;;14.40;10.18;;;;;;;;;;4945071;28;20556;-69
2023/03/05 00:38:37;;;;;;;18.45;11.10;;;;;;;;;;4946745;28;20050;-69
2023/03/05 00:42:18;;;;;;;15.60;11.05;;;;;;;;;;4945933;28;20054;-69
2023/03/05 00:45:59;;;;;;;23.00;10.63;;;;;;;;;;4944111;28;20420;-70
2023/03/05 00:49:40;;;;;;;17.52;10.73;;;;;;;;;;4945730;29;20138;-71
2023/03/05 00:53:21;;;;;;;16.15;10.20;;;;;;;;;;4947007;28;20066;-68
2023/03/05 00:57:02;;;;;;;18.50;11.13;;;;;;;;;;4948141;29;20423;-69
2023/03/05 01:00:43;;;;;;;16.98;10.38;;;;;;;;;;4947179;28;20083;-70
2023/03/05 01:04:24;;;;;;;17.15;10.40;;;;;;;;;;4936809;28;20050;-69
2023/03/05 01:08:04;;;;;;;20.20;10.23;;;;;;;;;;4944812;28;20055;-69
2023/03/05 01:11:45;;;;;;;16.52;10.50;;;;;;;;;;4946191;28;20047;-69
2023/03/05 01:15:27;;;;;;;17.52;10.57;;;;;;;;;;4945545;28;20455;-68
2023/03/05 01:19:07;;;;;;;15.70;10.90;;;;;;;;;;4949391;28;20196;-69
2023/03/05 01:22:48;;;;;;;16.30;10.60;;;;;;;;;;4946919;28;20046;-70
2023/03/05 01:26:32;;;;;;;22.52;11.27;;;;;;;;;;4951364;28;20094;-70
2023/03/05 01:30:12;;;;;;;17.08;11.25;;;;;;;;;;4951584;28;20295;-68
2023/03/05 01:33:52;;;;;;;19.55;12.25;;;;;;;;;;4948568;28;20516;-69
2023/03/05 01:37:32;;;;;;;21.38;11.32;;;;;;;;;;4947550;28;20053;-68
2023/03/05 01:41:13;;;;;;;24.40;12.20;;;;;;;;;;4940234;28;20496;-68
2023/03/05 01:44:56;;;;;;;18.80;11.63;;;;;;;;;;4948863;28;20054;-70
2023/03/05 01:48:36;;;;;;;21.30;11.90;;;;;;;;;;4947313;28;20226;-70
2023/03/05 01:51:57;;;;;;;18.60;10.90;;;;;;;;;;4949539;29;20204;-70
2023/03/05 01:55:44;;;;;;;19.30;10.85;;;;;;;;;;4949768;28;20058;-69
2023/03/05 01:59:24;;;;;;;15.52;10.57;;;;;;;;;;4947208;28;20051;-69
2023/03/05 02:03:06;;;;;;;19.58;11.00;;;;;;;;;;4939504;28;20059;-68
2023/03/05 02:06:49;;;;;;;18.83;9.85;;;;;;;;;;4946622;28;20110;-69
2023/03/05 02:10:35;;;;;;;16.10;10.57;;;;;;;;;;4946309;28;20447;-69
2023/03/05 02:14:15;;;;;;;17.05;10.50;;;;;;;;;;4949878;28;20047;-70
2023/03/05 02:17:56;;;;;;;16.85;10.32;;;;;;;;;;4950179;28;20051;-70
2023/03/05 02:21:16;;;;;;;17.00;10.55;;;;;;;;;;4948639;28;20118;-71
2023/03/05 02:24:58;;;;;;;18.35;11.32;;;;;;;;;;4942484;28;20046;-68
2023/03/05 02:28:37;;;;;;;18.80;11.05;;;;;;;;;;4948246;28;20109;-68
2023/03/05 02:32:17;;;;;;;17.35;10.90;;;;;;;;;;4946107;28;20062;-69
2023/03/05 02:35:57;;;;;;;18.08;10.52;;;;;;;;;;4943432;28;20094;-69
2023/03/05 02:39:41;;;;;;;17.08;10.75;;;;;;;;;;4940837;28;20625;-68
2023/03/05 02:43:21;;;;;;;16.15;10.48;;;;;;;;;;4942555;28;20062;-68
2023/03/05 02:47:02;;;;;;;17.75;10.68;;;;;;;;;;4950738;28;20183;-70
2023/03/05 02:50:44;;;;;;;15.20;9.88;;;;;;;;;;4945306;28;20039;-70
2023/03/05 02:54:25;;;;;;;14.30;9.85;;;;;;;;;;4946230;28;20070;-68
2023/03/05 02:58:05;;;;;;;13.32;9.70;;;;;;;;;;4949958;28;20145;-68
2023/03/05 03:01:45;;;;;;;16.70;9.93;;;;;;;;;;4945310;28;20484;-75
2023/03/05 03:05:27;;;;;;;19.85;10.07;;;;;;;;;;4939625;28;20181;-68
2023/03/05 03:09:09;;;;;;;14.48;10.65;;;;;;;;;;4940546;28;20047;-70
2023/03/05 03:12:49;;;;;;;15.35;10.52;;;;;;;;;;4939975;28;20051;-68
2023/03/05 03:16:29;;;;;;;14.73;10.15;;;;;;;;;;4941627;28;20480;-70
2023/03/05 03:20:10;;;;;;;13.57;10.05;;;;;;;;;;4940635;28;20050;-69
2023/03/05 03:23:51;;;;;;;17.13;10.30;;;;;;;;;;4940958;28;20110;-69
2023/03/05 03:27:48;;;;;;;15.65;10.10;;;;;;;;;;4940109;28;20059;-67
2023/03/05 03:31:28;;;;;;;16.27;10.45;;;;;;;;;;4938090;28;20059;-69
2023/03/05 03:35:10;;;;;;;15.60;10.50;;;;;;;;;;4940632;28;20137;-70
2023/03/05 03:38:53;;;;;;;17.73;11.05;;;;;;;;;;4937632;28;20078;-68
2023/03/05 03:42:36;;;;;;;16.55;10.57;;;;;;;;;;4941697;29;20058;-68
2023/03/05 03:46:20;;;;;;;14.98;10.57;;;;;;;;;;4944092;29;20157;-70
2023/03/05 03:50:00;;;;;;;15.75;10.98;;;;;;;;;;4941642;28;20055;-69
2023/03/05 03:53:40;;;;;;;14.52;10.07;;;;;;;;;;4940199;28;20059;-67
2023/03/05 03:57:21;;;;;;;15.45;9.70;;;;;;;;;;4936019;28;20122;-69
2023/03/05 04:01:01;;;;;;;15.07;9.32;;;;;;;;;;4941262;28;20063;-67
2023/03/05 04:04:41;;;;;;;16.60;9.45;;;;;;;;;;4942929;28;20050;-68
2023/03/05 04:08:22;;;;;;;18.17;9.60;;;;;;;;;;4937276;28;20496;-68
2023/03/05 04:12:02;;;;;;;13.90;9.07;;;;;;;;;;4939740;28;20143;-69
2023/03/05 04:15:44;;;;;;;13.48;9.15;;;;;;;;;;4939080;28;20035;-69
2023/03/05 04:19:24;;;;;;;15.43;9.68;;;;;;;;;;4941037;28;20043;-68
2023/03/05 04:23:06;;;;;;;15.10;9.52;;;;;;;;;;4940915;28;20063;-68
2023/03/05 04:26:47;;;;;;;15.80;9.95;;;;;;;;;;4941379;28;20537;-68
2023/03/05 04:30:27;;;;;;;17.70;9.90;;;;;;;;;;4940043;29;20066;-70
2023/03/05 04:34:07;;;;;;;16.83;10.30;;;;;;;;;;4939123;28;20094;-68
2023/03/05 04:37:48;;;;;;;16.40;9.48;;;;;;;;;;4937996;28;20071;-68
2023/03/05 04:41:28;;;;;;;18.52;9.63;;;;;;;;;;4938204;28;20142;-68
2023/03/05 04:45:09;;;;;;;15.93;9.43;;;;;;;;;;4938461;28;20047;-69
2023/03/05 04:48:50;;;;;;;17.00;8.85;;;;;;;;;;4939114;28;20065;-68
2023/03/05 04:52:32;;;;;;;12.60;8.68;;;;;;;;;;4938641;28;20455;-69
2023/03/05 04:56:13;;;;;;;13.15;8.57;;;;;;;;;;4942583;28;20059;-68
2023/03/05 04:59:53;;;;;;;11.13;7.57;;;;;;;;;;4941625;28;20079;-68
2023/03/05 05:03:33;;;;;;;9.98;6.65;;;;;;;;;;4939840;28;20047;-68
2023/03/05 05:07:14;;;;;;;9.93;6.35;;;;;;;;;;4940874;28;20045;-68
2023/03/05 05:10:55;;;;;;;9.45;6.10;;;;;;;;;;4939866;28;20509;-68
2023/03/05 05:14:35;;;;;;;9.32;5.85;;;;;;;;;;4942065;28;20296;-68
2023/03/05 05:18:18;;;;;;;9.23;5.75;;;;;;;;;;4940918;28;20082;-67
2023/03/05 05:22:01;;;;;;;9.38;5.00;;;;;;;;;;4940258;28;20051;-68
2023/03/05 05:25:42;;;;;;;9.90;5.00;;;;;;;;;;4942400;28;20043;-69
2023/03/05 05:29:23;;;;;;;9.38;4.70;;;;;;;;;;4942252;28;20051;-68
2023/03/05 05:33:03;;;;;;;10.93;4.93;;;;;;;;;;4939972;28;20051;-72
2023/03/05 05:36:44;;;;;;;8.15;4.97;;;;;;;;;;4944510;28;20674;-71
2023/03/05 05:40:24;;;;;;;10.95;5.20;;;;;;;;;;4939743;28;20082;-70
2023/03/05 05:44:05;;;;;;;7.53;5.40;;;;;;;;;;4940049;28;20074;-67
2023/03/05 05:47:46;;;;;;;9.05;5.53;;;;;;;;;;4941283;28;20506;-67
2023/03/05 05:51:27;;;;;;;9.98;6.50;;;;;;;;;;4939870;28;20055;-69
2023/03/05 05:55:08;;;;;;;10.40;6.70;;;;;;;;;;4943633;28;20439;-70
2023/03/05 05:58:48;;;;;;;12.18;6.55;;;;;;;;;;4944026;28;20667;-68
2023/03/05 06:02:28;;;;;;;13.77;7.90;;;;;;;;;;4942299;28;20150;-69
2023/03/05 06:06:10;;;;;;;11.63;7.35;;;;;;;;;;4943483;29;20165;-68
2023/03/05 06:09:50;;;;;;;11.45;7.63;;;;;;;;;;4945604;28;20411;-69
2023/03/05 06:13:30;;;;;;;15.00;8.25;;;;;;;;;;4940795;28;20055;-68
2023/03/05 06:17:12;;;;;;;11.57;7.78;;;;;;;;;;4942766;28;20062;-69
2023/03/05 06:20:52;;;;;;;14.30;7.90;;;;;;;;;;4939720;28;20486;-68
2023/03/05 06:24:32;;;;;;;14.90;7.88;;;;;;;;;;4943220;28;20547;-68
2023/03/05 06:28:13;;;;;;;14.05;8.43;;;;;;;;;;4941559;29;20051;-68
2023/03/05 06:31:53;;;;;;;20.92;8.25;;;;;;;;;;4944365;28;20066;-69
2023/03/05 06:35:33;;;;;;;11.02;7.15;;;;;;;;;;4943500;28;20066;-68
2023/03/05 06:39:14;;;;;;;13.30;6.90;;;;;;;;;;4942513;28;20083;-67
2023/03/05 06:42:54;;;;;;;11.77;6.72;;;;;;;;;;4945470;28;20106;-68
2023/03/05 06:46:21;;;;;;;10.70;6.70;;;;;;;;;;4947402;28;20063;-68
2023/03/05 06:50:01;;;;;;;10.07;6.45;;;;;;;;;;4941141;28;20339;-69
2023/03/05 06:53:42;;;;;;;10.48;6.72;;;;;;;;;;4941994;28;20100;-68
2023/03/05 06:57:23;;;;;;;13.35;7.10;;;;;;;;;;4943004;29;20113;-69
2023/03/05 07:01:04;;;;;;;12.70;6.82;;;;;;;;;;4942996;28;20058;-69
2023/03/05 07:04:44;;;;;;;16.02;7.20;;;;;;;;;;4940691;28;20062;-69
2023/03/05 07:08:24;;;;;;;11.07;6.63;;;;;;;;;;4940682;28;20109;-69
2023/03/05 07:12:06;;;;;;;11.48;6.55;;;;;;;;;;4941068;28;20055;-69
2023/03/05 07:15:46;;;;;;;13.30;7.43;;;;;;;;;;4932101;28;20321;-69
2023/03/05 07:19:26;;;;;;;12.10;6.53;;;;;;;;;;4941412;28;20051;-69
2023/03/05 07:23:07;;;;;;;10.80;6.97;;;;;;;;;;4943955;28;20051;-69
2023/03/05 07:26:47;;;;;;;20.55;7.88;;;;;;;;;;4948635;28;21397;-69
2023/03/05 07:30:29;;;;;;;15.63;8.27;;;;;;;;;;4949032;29;20058;-68
2023/03/05 07:34:11;;;;;;;24.88;11.63;;;;;;;;;;4947845;28;20081;-70
2023/03/05 07:37:55;;;;;;;25.55;13.15;;;;;;;;;;4942880;28;20071;-71
2023/03/05 07:41:35;;;;;;;19.33;12.23;;;;;;;;;;4941075;29;20035;-69
2023/03/05 07:45:15;;;;;;;26.95;13.20;;;;;;;;;;4947797;28;20043;-74
2023/03/05 07:48:56;;;;;;;30.55;16.65;;;;;;;;;;4945220;28;20047;-70
2023/03/05 07:52:38;;;;;;;31.10;16.40;;;;;;;;;;4947173;28;20078;-69
2023/03/05 07:56:24;;;;;;;24.10;13.95;;;;;;;;;;4942078;28;20066;-70
2023/03/05 08:00:06;;;;;;;28.55;15.00;;;;;;;;;;4948261;28;20055;-71
2023/03/05 08:03:47;;;;;;;23.23;12.50;;;;;;;;;;4940218;28;20061;-70
2023/03/05 08:07:28;;;;;;;18.58;10.93;;;;;;;;;;4947143;28;20061;-70
2023/03/05 08:11:08;;;;;;;11.20;6.95;;;;;;;;;;4941507;28;20039;-70
2023/03/05 08:14:50;;;;;;;8.57;5.43;;;;;;;;;;4940017;28;20043;-71
2023/03/05 08:18:30;;;;;;;12.18;5.53;;;;;;;;;;4939235;28;20143;-68
2023/03/05 08:22:19;;;;;;;9.93;5.43;;;;;;;;;;4940147;28;20541;-73
2023/03/05 08:25:57;;;;;;;12.55;5.68;;;;;;;;;;4941307;28;20058;-70
2023/03/05 08:29:37;;;;;;;11.15;5.65;;;;;;;;;;4944739;28;20047;-69
2023/03/05 08:33:18;;;;;;;16.17;5.93;;;;;;;;;;4940830;28;20172;-73
2023/03/05 08:36:58;;;;;;;15.25;7.13;;;;;;;;;;4945537;28;20076;-69
2023/03/05 08:40:38;;;;;;;6.90;4.82;;;;;;;;;;4946762;28;20587;-69
2023/03/05 08:44:19;;;;;;;7.50;4.82;;;;;;;;;;4945116;28;20235;-69
2023/03/05 08:47:59;;;;;;;8.15;4.30;;;;;;;;;;4944647;28;20435;-70
2023/03/05 08:51:48;;;;;;;8.85;4.35;;;;;;;;;;4946140;28;20058;-71
2023/03/05 08:55:31;;;;;;;8.43;3.80;;;;;;;;;;4943813;28;20063;-71
2023/03/05 08:59:11;;;;;;;6.80;3.72;;;;;;;;;;4945412;28;20067;-69
2023/03/05 09:02:51;;;;;;;11.07;3.92;;;;;;;;;;4939147;28;20054;-69
2023/03/05 09:06:33;;;;;;;8.68;3.90;;;;;;;;;;4943566;28;20083;-71
2023/03/05 09:10:13;;;;;;;6.40;3.85;;;;;;;;;;4948972;28;20043;-70
2023/03/05 09:13:54;;;;;;;6.65;3.72;;;;;;;;;;4951835;28;20057;-70
2023/03/05 09:17:36;;;;;;;10.68;3.80;;;;;;;;;;4952959;28;20149;-68
2023/03/05 09:21:16;;;;;;;5.93;3.60;;;;;;;;;;4952080;28;20420;-71
2023/03/05 09:24:58;;;;;;;6.22;3.47;;;;;;;;;;4952892;28;20047;-70
2023/03/05 09:28:41;;;;;;;8.23;3.90;;;;;;;;;;4950650;28;20043;-71
2023/03/05 09:32:22;;;;;;;9.48;4.35;;;;;;;;;;4949662;28;20201;-69
2023/03/05 09:36:03;;;;;;;7.07;3.55;;;;;;;;;;4950273;28;20128;-69
2023/03/05 09:39:44;;;;;;;6.10;3.42;;;;;;;;;;4951645;28;20055;-71
2023/03/05 09:43:24;;;;;;;5.65;3.67;;;;;;;;;;4942574;28;20059;-69
2023/03/05 09:46:35;;;;;;;7.95;4.13;;;;;;;;;;4941165;28;20078;-70
2023/03/05 09:49:56;;;;;;;9.07;4.72;;;;;;;;;;4945822;28;20462;-72
2023/03/05 09:53:26;;;;;;;8.13;4.20;;;;;;;;;;4948442;28;20800;-71
2023/03/05 09:57:06;;;;;;;10.63;5.00;;;;;;;;;;4947287;28;20188;-71
2023/03/05 10:00:20;;;;;;;12.00;5.03;;;;;;;;;;4948424;28;20051;-71
2023/03/05 10:03:49;;;;;;;8.18;5.13;;;;;;;;;;4942224;28;20057;-70
2023/03/05 10:07:32;;;;;;;14.13;5.20;;;;;;;;;;4946356;28;20047;-69
2023/03/05 10:11:13;;;;;;;8.80;5.22;;;;;;;;;;4946918;28;20039;-72
2023/03/05 10:14:54;;;;;;;10.25;5.30;;;;;;;;;;4950001;28;20102;-71
2023/03/05 10:18:29;;;;;;;9.73;6.13;;;;;;;;;;4946749;28;20110;-70
2023/03/05 10:21:50;;;;;;;8.68;5.50;;;;;;;;;;4946755;28;20126;-69
2023/03/05 10:25:10;;;;;;;11.77;5.32;;;;;;;;;;4945503;28;20047;-71
2023/03/05 10:29:02;;;;;;;11.43;5.60;;;;;;;;;;4949479;28;20067;-69
2023/03/05 10:32:59;;;;;;;12.82;6.85;;;;;;;;;;4950423;28;20240;-71
2023/03/05 10:36:23;;;;;;;7.95;5.50;;;;;;;;;;4947181;28;20051;-70
2023/03/05 10:39:30;;;;;;;11.35;6.72;;;;;;;;;;4944728;28;20070;-73
2023/03/05 10:43:16;;;;;;;15.95;7.32;;;;;;;;;;4935223;28;20046;-70
2023/03/05 10:46:57;;;;;;;10.82;6.93;;;;;;;;;;4947634;28;20062;-70
2023/03/05 10:50:37;;;;;;;11.02;6.20;;;;;;;;;;4948486;28;20569;-71
2023/03/05 10:54:03;;;;;;;11.55;6.90;;;;;;;;;;4948823;28;20063;-71
2023/03/05 10:57:56;;;;;;;10.15;6.30;;;;;;;;;;4944801;28;20054;-71
2023/03/05 11:01:40;;;;;;;7.65;5.10;;;;;;;;;;4941111;28;20658;-69
2023/03/05 11:05:20;;;;;;;10.73;5.00;;;;;;;;;;4946109;28;20047;-70
2023/03/05 11:08:50;;;;;;;10.00;4.07;;;;;;;;;;4943524;28;20039;-72
2023/03/05 11:12:07;;;;;;;7.32;4.68;;;;;;;;;;4940652;28;20250;-69
2023/03/05 11:15:13;;;;;;;8.77;3.95;;;;;;;;;;4943844;28;20071;-71
2023/03/05 11:18:57;;;;;;;11.73;5.43;;;;;;;;;;4942911;28;20547;-71
2023/03/05 11:22:16;;;;;;;6.28;3.78;;;;;;;;;;4947600;28;20047;-71
2023/03/05 11:25:56;;;;;;;7.75;3.95;;;;;;;;;;4940187;28;20044;-70
2023/03/05 11:29:41;;;;;;;8.15;3.60;;;;;;;;;;4941448;28;20415;-70
2023/03/05 11:33:30;;;;;;;8.45;4.00;;;;;;;;;;4947060;28;20130;-71
2023/03/05 11:36:53;;;;;;;10.93;5.00;;;;;;;;;;4941535;28;20055;-70
2023/03/05 11:40:09;;;;;;;9.40;4.70;;;;;;;;;;4941201;28;20583;-69
2023/03/05 11:43:51;;;;;;;11.15;4.95;;;;;;;;;;4944955;28;20432;-69
2023/03/05 11:47:17;;;;;;;8.98;4.95;;;;;;;;;;4942213;28;20141;-70
2023/03/05 11:50:57;;;;;;;9.43;5.30;;;;;;;;;;4948470;28;20043;-70
2023/03/05 11:54:38;;;;;;;8.10;5.68;;;;;;;;;;4945425;28;20051;-69
2023/03/05 11:58:04;;;;;;;9.27;5.97;;;;;;;;;;4944978;28;20051;-70
2023/03/05 12:01:47;;;;;;;11.15;5.60;;;;;;;;;;4946356;28;20045;-70
2023/03/05 12:04:50;;;;;;;;;;;;;;;;;;4945841;28;20051;-74
2023/03/05 12:08:32;;;;;;;12.25;6.60;;;;;;;;;;4945507;28;19949;-70
2023/03/05 12:12:17;;;;;;;11.80;6.30;;;;;;;;;;4940997;28;20062;-71
2023/03/05 12:16:01;;;;;;;8.35;6.13;;;;;;;;;;4942934;28;20476;-73
2023/03/05 12:19:11;;;;;;;9.98;6.05;;;;;;;;;;4939338;28;20318;-70
2023/03/05 12:23:00;;;;;;;11.43;6.22;;;;;;;;;;4943333;28;20398;-70
2023/03/05 12:26:40;;;;;;;12.80;5.28;;;;;;;;;;4944738;28;20047;-71
2023/03/05 12:30:21;;;;;;;7.60;4.78;;;;;;;;;;4947285;28;20043;-69
2023/03/05 12:34:07;;;;;;;9.00;5.03;;;;;;;;;;4944958;28;20387;-70
2023/03/05 12:37:31;;;;;;;9.70;4.80;;;;;;;;;;4938782;28;20046;-71
2023/03/05 12:41:11;;;;;;;13.20;6.03;;;;;;;;;;4946551;28;20066;-70
2023/03/05 12:44:03;;;;;;;11.40;5.50;;;;;;;;;;4945580;28;20051;-70
2023/03/05 12:47:14;;;;;;;9.23;5.30;;;;;;;;;;4943310;28;20051;-69
2023/03/05 12:50:25;;;;;;;9.32;5.68;;;;;;;;;;4947412;28;20039;-71
2023/03/05 12:54:07;;;;;;;11.05;4.97;;;;;;;;;;4941505;28;20063;-70
2023/03/05 12:57:56;;;;;;;8.93;5.28;;;;;;;;;;4941960;28;20062;-70
2023/03/05 13:01:03;;;;;;;6.38;4.35;;;;;;;;;;4942776;28;20048;-70
2023/03/05 13:04:44;;;;;;;10.38;4.72;;;;;;;;;;4944864;28;20039;-68
2023/03/05 13:08:14;;;;;;;11.10;5.13;;;;;;;;;;4942504;28;20904;-69
2023/03/05 13:11:58;;;;;;;10.98;5.43;;;;;;;;;;4943081;28;20051;-67
2023/03/05 13:15:38;;;;;;;9.30;5.28;;;;;;;;;;4945329;28;20054;-66
2023/03/05 13:19:19;;;;;;;9.35;6.57;;;;;;;;;;4937487;28;20400;-65
2023/03/05 13:22:59;;;;;;;14.98;5.75;;;;;;;;;;4941835;28;20143;-66
2023/03/05 13:26:57;;;;;;;11.25;6.35;;;;;;;;;;4942544;28;21201;-65
2023/03/05 13:30:41;;;;;;;12.02;6.15;;;;;;;;;;4947601;28;20039;-65
2023/03/05 13:34:24;;;;;;;7.68;4.78;;;;;;;;;;4945494;28;20105;-65
2023/03/05 13:38:08;;;;;;;13.05;5.68;;;;;;;;;;4947880;28;20051;-65
2023/03/05 13:41:15;;;;;;;9.63;5.90;;;;;;;;;;4946311;28;20098;-65
2023/03/05 13:44:58;;;;;;;11.32;5.65;;;;;;;;;;4945504;28;20046;-67
2023/03/05 13:48:38;;;;;;;12.23;5.30;;;;;;;;;;4943711;28;20458;-66
2023/03/05 13:52:22;;;;;;;9.10;5.32;;;;;;;;;;4946580;28;20043;-65
2023/03/05 13:56:02;;;;;;;11.57;5.65;;;;;;;;;;4947165;28;20110;-66
2023/03/05 13:59:45;;;;;;;8.82;5.13;;;;;;;;;;4944241;28;20148;-67
2023/03/05 14:03:41;;;;;;;9.48;5.30;;;;;;;;;;4944600;28;20058;-67
2023/03/05 14:07:25;;;;;;;12.32;5.43;;;;;;;;;;4944053;28;20054;-65
2023/03/05 14:10:45;;;;;;;9.68;5.03;;;;;;;;;;4937859;28;20053;-65
2023/03/05 14:14:28;;;;;;;10.52;4.35;;;;;;;;;;4946260;28;20046;-66
2023/03/05 14:17:29;;;;;;;10.77;4.32;;;;;;;;;;4945908;28;20054;-67
2023/03/05 14:21:21;;;;;;;8.23;4.32;;;;;;;;;;4945634;28;20619;-67
2023/03/05 14:25:02;;;;;;;8.88;4.45;;;;;;;;;;4940979;28;20053;-65
2023/03/05 14:28:46;;;;;;;9.82;4.20;;;;;;;;;;4944605;28;20753;-66
2023/03/05 14:32:27;;;;;;;7.20;3.83;;;;;;;;;;4945115;28;20213;-65
2023/03/05 14:36:07;;;;;;;9.52;4.00;;;;;;;;;;4942527;28;20051;-67
2023/03/05 14:39:48;;;;;;;5.63;3.72;;;;;;;;;;4948919;28;20142;-65
2023/03/05 14:43:29;;;;;;;8.05;3.53;;;;;;;;;;4948176;28;20355;-66
2023/03/05 14:47:10;;;;;;;6.47;3.03;;;;;;;;;;4947011;28;20094;-67
2023/03/05 14:50:37;;;;;;;7.32;2.92;;;;;;;;;;4948726;28;20078;-66
2023/03/05 14:54:18;;;;;;;7.07;2.70;;;;;;;;;;4944340;28;20059;-70
2023/03/05 14:57:59;;;;;;;8.32;3.50;;;;;;;;;;4943548;28;20238;-66
2023/03/05 15:01:40;;;;;;;6.45;3.22;;;;;;;;;;4944804;28;20480;-66
2023/03/05 15:05:20;;;;;;;5.47;2.70;;;;;;;;;;4946129;28;20050;-66
2023/03/05 15:09:01;;;;;;;5.53;2.70;;;;;;;;;;4944972;28;20487;-66
2023/03/05 15:12:41;;;;;;;7.30;2.78;;;;;;;;;;4948448;28;20078;-64
2023/03/05 15:16:21;;;;;;;5.68;3.00;;;;;;;;;;4945223;28;20047;-66
2023/03/05 15:20:05;;;;;;;7.93;3.05;;;;;;;;;;4944619;28;20050;-66
2023/03/05 15:23:44;;;;;;;5.18;2.42;;;;;;;;;;4942831;28;20035;-67
2023/03/05 15:27:23;;;;;;;4.28;2.13;;;;;;;;;;4943528;28;20047;-68
2023/03/05 15:31:04;;;;;;;6.13;2.38;;;;;;;;;;4943597;28;20074;-66
2023/03/05 15:34:44;;;;;;;6.40;2.30;;;;;;;;;;4941413;28;20470;-67
2023/03/05 15:38:24;;;;;;;8.35;2.53;;;;;;;;;;4943238;28;20062;-68
2023/03/05 15:42:05;;;;;;;8.43;2.97;;;;;;;;;;4945346;28;20050;-67
2023/03/05 15:45:47;;;;;;;7.57;3.10;;;;;;;;;;4946524;28;20066;-66
2023/03/05 15:49:27;;;;;;;7.40;3.28;;;;;;;;;;4945296;28;20187;-67
2023/03/05 15:53:08;;;;;;;8.65;3.17;;;;;;;;;;4944152;28;20475;-69
2023/03/05 15:56:48;;;;;;;8.30;2.95;;;;;;;;;;4947368;28;20054;-68
2023/03/05 16:00:29;;;;;;;9.10;4.00;;;;;;;;;;4946089;28;20055;-66
2023/03/05 16:04:10;;;;;;;8.20;3.40;;;;;;;;;;4945510;28;20126;-66
2023/03/05 16:07:51;;;;;;;4.97;2.53;;;;;;;;;;4944530;28;20123;-67
2023/03/05 16:11:32;;;;;;;5.75;2.67;;;;;;;;;;4946782;28;20101;-68
2023/03/05 16:15:12;;;;;;;9.00;2.92;;;;;;;;;;4945122;28;20118;-67
2023/03/05 16:18:53;;;;;;;7.35;3.45;;;;;;;;;;4941909;28;20063;-67
2023/03/05 16:22:34;;;;;;;8.75;3.45;;;;;;;;;;4940608;28;20399;-68
2023/03/05 16:26:16;;;;;;;9.57;4.18;;;;;;;;;;4942973;28;20047;-67
2023/03/05 16:29:57;;;;;;;7.55;3.72;;;;;;;;;;4945432;28;20051;-67
2023/03/05 16:33:37;;;;;;;9.10;3.53;;;;;;;;;;4945446;28;20059;-67
2023/03/05 16:37:19;;;;;;;6.63;4.30;;;;;;;;;;4943859;28;20051;-67
2023/03/05 16:41:00;;;;;;;9.25;4.90;;;;;;;;;;4944756;28;20062;-66
2023/03/05 16:44:40;;;;;;;9.02;4.70;;;;;;;;;;4944079;28;20487;-67
2023/03/05 16:48:21;;;;;;;7.43;4.13;;;;;;;;;;4944747;28;20054;-67
2023/03/05 16:52:03;;;;;;;7.95;4.60;;;;;;;;;;4945701;28;20055;-66
2023/03/05 16:55:41;;;;;;;7.82;4.30;;;;;;;;;;4949068;28;20058;-67
2023/03/05 16:59:22;;;;;;;20.20;6.25;;;;;;;;;;4945464;28;20093;-67
2023/03/05 17:03:02;;;;;;;9.07;4.63;;;;;;;;;;4944907;28;20039;-70
2023/03/05 17:06:44;;;;;;;13.32;5.57;;;;;;;;;;4947107;28;20078;-68
2023/03/05 17:10:25;;;;;;;11.70;4.70;;;;;;;;;;4945061;28;20055;-67
2023/03/05 17:14:05;;;;;;;7.68;4.50;;;;;;;;;;4946545;28;20128;-67
2023/03/05 17:17:46;;;;;;;11.75;4.50;;;;;;;;;;4946846;28;20695;-68
2023/03/05 17:21:27;;;;;;;8.27;5.50;;;;;;;;;;4947844;28;20169;-69
2023/03/05 17:25:07;;;;;;;8.60;4.63;;;;;;;;;;4946629;28;20105;-68
2023/03/05 17:28:47;;;;;;;10.70;4.90;;;;;;;;;;4948319;28;20733;-68
2023/03/05 17:32:28;;;;;;;9.50;5.85;;;;;;;;;;4947235;28;20131;-68
2023/03/05 17:36:08;;;;;;;10.30;5.72;;;;;;;;;;4951712;28;20319;-68
2023/03/05 17:39:49;;;;;;;16.27;5.68;;;;;;;;;;4947920;28;20324;-67
2023/03/05 17:43:29;;;;;;;11.90;5.32;;;;;;;;;;4937584;28;20109;-68
2023/03/05 17:47:10;;;;;;;13.07;4.65;;;;;;;;;;4943600;28;20043;-70
2023/03/05 17:50:51;;;;;;;9.18;5.20;;;;;;;;;;4949381;28;20043;-68
2023/03/05 17:54:31;;;;;;;27.05;11.85;;;;;;;;;;4947255;28;20063;-68
2023/03/05 17:58:11;;;;;;;12.30;6.50;;;;;;;;;;4947219;28;20082;-69
2023/03/05 18:01:53;;;;;;;7.18;5.13;;;;;;;;;;4944091;28;20075;-67
2023/03/05 18:05:33;;;;;;;11.02;5.63;;;;;;;;;;4945504;28;20139;-69
2023/03/05 18:09:15;;;;;;;13.88;5.03;;;;;;;;;;4946770;28;20047;-65
2023/03/05 18:12:55;;;;;;;15.25;7.60;;;;;;;;;;4950833;28;20039;-67
2023/03/05 18:16:36;;;;;;;14.23;8.13;;;;;;;;;;4945736;28;20050;-68
2023/03/05 18:20:17;;;;;;;14.63;5.88;;;;;;;;;;4943246;28;20047;-66
2023/03/05 18:23:58;;;;;;;18.73;6.97;;;;;;;;;;4947133;28;20564;-68
2023/03/05 18:27:39;;;;;;;13.40;6.88;;;;;;;;;;4948058;28;20054;-68
2023/03/05 18:31:20;;;;;;;11.98;6.47;;;;;;;;;;4947857;28;20055;-68
2023/03/05 18:35:00;;;;;;;14.35;7.00;;;;;;;;;;4946062;28;20044;-67
2023/03/05 18:38:42;;;;;;;16.30;9.32;;;;;;;;;;4944954;28;20058;-70
2023/03/05 18:42:24;;;;;;;18.52;9.60;;;;;;;;;;4939592;28;20067;-68
2023/03/05 18:46:06;;;;;;;13.82;8.02;;;;;;;;;;4948486;28;20038;-67
2023/03/05 18:49:45;;;;;;;17.55;8.10;;;;;;;;;;4947429;28;20050;-68
2023/03/05 18:53:26;;;;;;;19.05;8.85;;;;;;;;;;4946274;28;20138;-68
2023/03/05 18:57:06;;;;;;;13.40;9.50;;;;;;;;;;4943503;28;20062;-69
2023/03/05 19:00:47;;;;;;;19.80;10.15;;;;;;;;;;4940106;28;20479;-68
2023/03/05 19:04:28;;;;;;;17.25;9.52;;;;;;;;;;4939900;28;20053;-68
2023/03/05 19:08:08;;;;;;;18.17;10.60;;;;;;;;;;4939539;29;20105;-70
2023/03/05 19:11:55;;;;;;;20.25;10.40;;;;;;;;;;4941609;28;20087;-67
2023/03/05 19:15:36;;;;;;;27.15;10.80;;;;;;;;;;4945941;28;20050;-68
2023/03/05 19:19:23;;;;;;;18.65;9.77;;;;;;;;;;4939788;28;20511;-68
2023/03/05 19:23:03;;;;;;;14.30;8.57;;;;;;;;;;4944061;28;20406;-67
2023/03/05 19:26:45;;;;;;;14.90;7.70;;;;;;;;;;4945921;28;20078;-69
2023/03/05 19:30:25;;;;;;;13.45;6.97;;;;;;;;;;4947974;29;20121;-69
2023/03/05 19:34:06;;;;;;;12.25;6.63;;;;;;;;;;4948537;28;20475;-68
2023/03/05 19:37:50;;;;;;;13.55;6.45;;;;;;;;;;4944762;28;20055;-68
2023/03/05 19:41:31;;;;;;;11.45;6.82;;;;;;;;;;4945886;28;20051;-72
2023/03/05 19:45:12;;;;;;;11.60;6.53;;;;;;;;;;4947889;28;20047;-68
2023/03/05 19:48:54;;;;;;;11.35;7.60;;;;;;;;;;4943286;28;20125;-69
2023/03/05 19:52:34;;;;;;;12.85;7.70;;;;;;;;;;4948435;28;20442;-70
2023/03/05 19:56:15;;;;;;;12.13;5.65;;;;;;;;;;4944491;28;20466;-66
2023/03/05 19:59:56;;;;;;;13.68;5.72;;;;;;;;;;4947630;28;20531;-66
2023/03/05 20:03:37;;;;;;;12.45;7.20;;;;;;;;;;4946446;29;20054;-68
2023/03/05 20:07:18;;;;;;;13.68;7.10;;;;;;;;;;4945483;28;20051;-68
2023/03/05 20:10:58;;;;;;;16.50;5.60;;;;;;;;;;4942700;28;20118;-68
2023/03/05 20:14:38;;;;;;;6.47;2.08;;;;;;;;;;4945853;28;20039;-67
2023/03/05 20:18:19;;;;;;;5.13;1.70;;;;;;;;;;4940131;28;20086;-65
2023/03/05 20:22:06;;;;;;;9.02;2.08;;;;;;;;;;4945533;28;20066;-67
2023/03/05 20:25:46;;;;;;;14.88;1.80;;;;;;;;;;4941839;28;20043;-67
2023/03/05 20:29:27;;;;;;;8.27;1.80;;;;;;;;;;4933461;28;20054;-67
2023/03/05 20:33:07;;;;;;;9.05;1.60;;;;;;;;;;4936205;28;20051;-67
2023/03/05 20:36:48;;;;;;;6.43;1.67;;;;;;;;;;4938850;28;20047;-67
2023/03/05 20:40:29;;;;;;;5.68;1.77;;;;;;;;;;4940189;28;20051;-67
2023/03/05 20:44:12;;;;;;;4.93;1.90;;;;;;;;;;4942214;28;20087;-66
2023/03/05 20:47:51;;;;;;;3.08;1.80;;;;;;;;;;4936795;28;20054;-67
2023/03/05 20:51:32;;;;;;;5.28;1.85;;;;;;;;;;4941748;28;20047;-67
2023/03/05 20:55:12;;;;;;;12.15;2.22;;;;;;;;;;4942519;28;20114;-68
2023/03/05 20:58:54;;;;;;;11.85;2.33;;;;;;;;;;4943629;28;20403;-67
2023/03/05 21:02:38;;;;;;;7.60;2.05;;;;;;;;;;4944198;28;20050;-67
2023/03/05 21:06:17;;;;;;;8.63;2.35;;;;;;;;;;4945706;28;20043;-67
2023/03/05 21:09:58;;;;;;;4.28;1.80;;;;;;;;;;4948069;28;20054;-67
2023/03/05 21:13:38;;;;;;;4.40;2.20;;;;;;;;;;4940577;28;20155;-68
2023/03/05 21:17:18;;;;;;;4.07;2.38;;;;;;;;;;4941984;28;20101;-67
2023/03/05 21:20:59;;;;;;;5.25;2.17;;;;;;;;;;4940811;28;20656;-68
2023/03/05 21:23:59;;;;;;;6.13;2.40;;;;;;;;;;4943825;28;20066;-67
2023/03/05 21:27:05;;;;;;;11.43;2.35;;;;;;;;;;4927029;29;20126;-68
2023/03/05 21:30:52;;;;;;;7.95;2.80;;;;;;;;;;4939370;28;20043;-71
2023/03/05 21:34:32;;;;;;;3.30;2.15;;;;;;;;;;4942475;28;20066;-67
2023/03/05 21:38:13;;;;;;;7.45;2.47;;;;;;;;;;4948401;28;20400;-69